Main page
METAR-TAF:

METAR-TAF

Airports :

Leeming, England

RAF Leeming

latitude: 54-18N, longitude: 001-32W, elevation: 40 m

Current weather observation

The report was made 36 minutes ago, at 01:50 UTC
Wind 4 kt from the South
Temperature -4°C
Humidity 93%
Pressure 1022 hPa
Visibility 10 km or more

METAR: EGXE 170150Z AUTO 17004KT 9999 BKN190/// M04/M05 Q1022

Time: 02:26 (02:26 UTC)


TAF: missing

Weather observations and forecasts of more than 4000 airports (METAR and TAF reports).

The available stations are represented by yellow and red dots on the map.

Hover mouse over dot to see the name of the station.

Then click to see weather observations and forecasts.

To change the map : click on the green buttons with a black cross to zoom in, on the green button with a dash to zoom out, or on the green arrows for adjacent maps.


METAR-TAF: